Maasmechelen, Belgium
Current Conditions -  °F | °C
As of 9:55 AM on Monday 22 Dec 2014 (Local Time) from EHBK Reporting Station
Overcast Overcast  
Wind Chill: 38°   Ceiling: 900
Heat Index: 46°   Visibility: 4mi
Dew Point: 43°   Wind: 23mph
Humidity: 87%   Direction: 220°SW
Pressure: 30.15"   Gusts: NA
Location:  50.97°N, 5.69°E
Report Text: EHBK 220855Z AUTO 22020KT 7000 BKN009 OVC010 08/06 Q1021 NOSIG
Loading
Personal Weather Stations






























Interactive Weather Map New forecast layout! Learn more

10-Day Weather Forecast

Advertisements
Track Severe Weather on mobile